McZena, Ohio
Current Conditions -  °F | °C
As of 9:29 AM on Thursday 23 Oct 2014 (Local Time) from KBJJ Reporting Station
Broken Clouds Broken Clouds  
Wind Chill: 44°   Ceiling: 900
Heat Index: 48°   Visibility: 10mi
Dew Point: 43°   Wind: 9mph
Humidity: 83%   Direction: 320°NW
Pressure: 30.21"   Gusts: NA
Location:  40.6482°N, 82.138°W
Report Text: KBJJ 231329Z AUTO 32008KT 10SM BKN009 09/06 A3021 RMK AO2 T00890061 TSNO
Loading
Personal Weather Stations






























Interactive Weather Map
Tropical Storm Tracking
New forecast layout! Learn more

10-Day Weather Forecast

Advertisements
Track Severe Weather on mobile